Terminal Aerodrome Forecast
Issued by NWS

Home | Current Version | Previous Version | Text Only | Print | Product List | Glossary On
Versions: 1 2 3 4 5 6 7 8 9 10 11 12
000
FTUS46 KSGX 231726
TAFONT
TAF
KONT 231726Z 2318/2424 VRB04KT P6SM FEW250
     FM232100 26011G18KT P6SM FEW250
     FM240400 VRB05KT P6SM FEW250
     FM242100 26011G18KT P6SM SCT250=

USA.gov is the U.S. government's official web portal to all federal, state and local government web resources and services.